createdAt,value
2019-04-21T00:01:44.159Z,8.50
2019-04-21T00:04:24.875Z,8.50
2019-04-21T00:07:02.942Z,8.40
2019-04-21T00:09:37.748Z,8.40
2019-04-21T00:12:05.979Z,8.30
2019-04-21T00:14:29.176Z,8.30
2019-04-21T00:16:52.914Z,8.30
2019-04-21T00:19:36.645Z,8.20
2019-04-21T00:22:14.900Z,8.20
2019-04-21T00:24:50.710Z,8.20
2019-04-21T00:27:26.607Z,8.10
2019-04-21T00:30:01.809Z,8.10
2019-04-21T00:32:21.845Z,8.10
2019-04-21T00:34:43.261Z,8.00
2019-04-21T00:37:18.921Z,8.00
2019-04-21T00:42:30.222Z,8.00
2019-04-21T00:45:00.510Z,7.90
2019-04-21T00:47:34.453Z,7.90
2019-04-21T00:50:05.029Z,7.90
2019-04-21T00:53:06.778Z,7.80
2019-04-21T00:55:44.469Z,7.80
2019-04-21T00:58:18.425Z,7.80
2019-04-21T01:00:46.416Z,7.70
2019-04-21T01:03:20.525Z,7.70
2019-04-21T01:05:51.835Z,7.60
2019-04-21T01:08:13.324Z,7.60
2019-04-21T01:10:40.988Z,7.50
2019-04-21T01:13:21.351Z,7.50
2019-04-21T01:15:53.356Z,7.50
2019-04-21T01:18:21.146Z,7.40
2019-04-21T01:20:30.269Z,7.40
2019-04-21T01:23:00.268Z,7.40
2019-04-21T01:25:37.198Z,7.40
2019-04-21T01:28:19.930Z,7.30
2019-04-21T01:30:54.825Z,7.30
2019-04-21T01:33:26.318Z,7.30
2019-04-21T01:35:48.471Z,7.20
2019-04-21T01:38:29.134Z,7.20
2019-04-21T01:40:53.097Z,7.20
2019-04-21T01:43:23.358Z,7.20
2019-04-21T01:45:56.514Z,7.20
2019-04-21T01:48:24.406Z,7.20
2019-04-21T01:50:55.309Z,7.10
2019-04-21T01:53:38.532Z,7.10
2019-04-21T01:56:34.271Z,7.10
2019-04-21T01:58:57.338Z,7.10
2019-04-21T02:01:46.814Z,7.10
2019-04-21T02:04:07.263Z,7.00
2019-04-21T02:06:41.339Z,7.00
2019-04-21T02:09:13.069Z,7.00
2019-04-21T02:11:44.343Z,7.00
2019-04-21T02:14:15.777Z,7.00
2019-04-21T02:16:43.657Z,6.90
2019-04-21T02:19:08.345Z,6.90
2019-04-21T02:21:39.411Z,6.90
2019-04-21T02:24:22.345Z,6.90
2019-04-21T02:26:47.427Z,6.80
2019-04-21T02:29:21.859Z,6.80
2019-04-21T02:34:23.774Z,6.70
2019-04-21T02:37:19.515Z,6.70
2019-04-21T02:39:29.518Z,6.70
2019-04-21T02:42:05.392Z,6.70
2019-04-21T02:44:37.446Z,6.60
2019-04-21T02:47:19.098Z,6.60
2019-04-21T02:52:13.763Z,6.60
2019-04-21T02:54:48.274Z,6.50
2019-04-21T02:57:08.961Z,6.60
2019-04-21T02:59:50.020Z,6.50
2019-04-21T03:02:25.055Z,6.50
2019-04-21T03:10:22.201Z,6.50
2019-04-21T03:12:45.816Z,6.40
2019-04-21T03:18:06.485Z,6.40
2019-04-21T03:21:03.098Z,6.40
2019-04-21T03:33:58.789Z,6.40
2019-04-21T03:38:19.040Z,6.40
2019-04-21T03:40:44.399Z,6.40
2019-04-21T03:43:12.513Z,6.50
2019-04-21T03:48:24.141Z,6.50
2019-04-21T03:53:18.628Z,6.50
2019-04-21T04:04:26.299Z,6.50
2019-04-21T04:06:56.512Z,6.50
2019-04-21T04:09:44.574Z,6.50
2019-04-21T04:11:54.802Z,6.50
2019-04-21T04:14:44.408Z,6.50
2019-04-21T04:17:14.531Z,6.50
2019-04-21T04:24:51.703Z,6.50
2019-04-21T04:27:12.715Z,6.60
2019-04-21T04:29:31.832Z,6.60
2019-04-21T04:34:40.519Z,6.60
2019-04-21T04:37:12.445Z,6.70
2019-04-21T04:40:10.882Z,6.70
2019-04-21T04:42:39.026Z,6.70
2019-04-21T04:47:32.536Z,6.80
2019-04-21T04:50:00.698Z,6.80
2019-04-21T04:52:38.015Z,6.90
2019-04-21T04:55:06.825Z,6.90
2019-04-21T04:57:52.981Z,7.00
2019-04-21T05:00:24.004Z,7.00
2019-04-21T05:12:48.088Z,7.20
2019-04-21T05:15:11.403Z,7.30
2019-04-21T05:17:49.199Z,7.30
2019-04-21T05:22:42.844Z,7.50
2019-04-21T05:25:06.873Z,7.60
2019-04-21T05:27:40.966Z,7.70
2019-04-21T05:30:50.910Z,7.70
2019-04-21T05:33:45.017Z,7.80
2019-04-21T05:36:38.231Z,7.90
2019-04-21T05:39:18.490Z,8.00
2019-04-21T05:41:42.880Z,8.10
2019-04-21T05:44:33.267Z,8.20
2019-04-21T05:47:11.484Z,8.20
2019-04-21T05:49:34.842Z,8.30
2019-04-21T05:52:05.434Z,8.40
2019-04-21T05:54:44.549Z,8.50
2019-04-21T05:57:27.246Z,8.50
2019-04-21T06:07:19.010Z,9.00
2019-04-21T06:09:51.342Z,9.10
2019-04-21T06:12:18.231Z,9.30
2019-04-21T06:14:52.097Z,9.40
2019-04-21T06:17:25.247Z,9.50
2019-04-21T06:22:19.445Z,9.80
2019-04-21T06:27:27.514Z,9.90
2019-04-21T06:29:56.659Z,10.00
2019-04-21T06:32:38.590Z,10.10
2019-04-21T06:37:45.308Z,10.20
2019-04-21T06:40:19.910Z,10.30
2019-04-21T06:42:41.145Z,10.40
2019-04-21T06:45:27.564Z,10.40
2019-04-21T06:47:45.189Z,10.50
2019-04-21T06:50:12.236Z,10.60
2019-04-21T06:53:01.093Z,10.70
2019-04-21T06:55:16.981Z,10.70
2019-04-21T06:57:44.440Z,10.80
2019-04-21T07:00:11.736Z,10.90
2019-04-21T07:05:15.703Z,11.00
2019-04-21T07:07:55.170Z,11.10
2019-04-21T07:10:16.961Z,11.10
2019-04-21T07:12:45.099Z,11.20
2019-04-21T07:15:19.513Z,11.30
2019-04-21T07:17:49.930Z,11.30
2019-04-21T07:20:18.860Z,11.40
2019-04-21T07:25:22.073Z,11.50
2019-04-21T07:27:52.336Z,11.60
2019-04-21T07:30:25.601Z,11.70
2019-04-21T07:32:56.521Z,11.70
2019-04-21T07:35:25.029Z,11.80
2019-04-21T07:37:53.368Z,11.90
2019-04-21T07:40:22.301Z,11.90
2019-04-21T07:42:51.175Z,12.00
2019-04-21T07:45:22.728Z,12.10
2019-04-21T07:48:01.660Z,12.10
2019-04-21T07:50:51.435Z,12.20
2019-04-21T07:53:38.206Z,12.30
2019-04-21T07:55:41.101Z,12.40
2019-04-21T07:58:26.681Z,12.40
2019-04-21T08:01:18.076Z,12.50
2019-04-21T08:03:35.510Z,12.50
2019-04-21T08:06:28.258Z,12.60
2019-04-21T08:08:54.493Z,12.60
2019-04-21T08:11:21.112Z,12.80
2019-04-21T08:13:51.602Z,12.80
2019-04-21T08:16:26.462Z,12.80
2019-04-21T08:18:53.535Z,12.90
2019-04-21T08:21:29.941Z,13.00
2019-04-21T08:23:55.335Z,13.10
2019-04-21T08:26:30.825Z,13.20
2019-04-21T08:29:01.110Z,13.30
2019-04-21T08:31:32.247Z,13.30
2019-04-21T08:34:00.707Z,13.40
2019-04-21T08:36:28.063Z,13.50
2019-04-21T08:39:03.279Z,13.60
2019-04-21T08:41:31.662Z,13.70
2019-04-21T08:43:58.947Z,13.80
2019-04-21T08:46:31.779Z,13.90
2019-04-21T08:49:10.910Z,13.90
2019-04-21T08:51:39.540Z,14.00
2019-04-21T08:54:09.535Z,14.10
2019-04-21T08:56:46.860Z,14.20
2019-04-21T09:02:29.432Z,14.40
2019-04-21T09:04:59.825Z,14.50
2019-04-21T09:07:32.127Z,14.60
2019-04-21T09:09:57.520Z,14.70
2019-04-21T09:12:29.467Z,14.80
2019-04-21T09:15:03.325Z,14.90
2019-04-21T09:17:25.086Z,15.00
2019-04-21T09:20:07.947Z,15.10
2019-04-21T09:22:29.772Z,15.20
2019-04-21T09:25:03.325Z,15.30
2019-04-21T09:27:35.514Z,15.40
2019-04-21T09:29:54.243Z,15.50
2019-04-21T09:32:23.257Z,15.60
2019-04-21T09:34:50.672Z,15.70
2019-04-21T09:37:28.634Z,15.80
2019-04-21T09:39:52.423Z,15.90
2019-04-21T09:42:21.959Z,16.00
2019-04-21T09:44:56.974Z,16.10
2019-04-21T09:47:24.945Z,16.20
2019-04-21T09:49:54.394Z,16.30
2019-04-21T09:52:27.876Z,16.40
2019-04-21T09:55:03.916Z,16.50
2019-04-21T09:57:34.721Z,16.50
2019-04-21T10:00:04.114Z,16.60
2019-04-21T10:02:36.556Z,16.70
2019-04-21T10:04:57.336Z,16.80
2019-04-21T10:07:34.270Z,16.80
2019-04-21T10:09:58.215Z,17.00
2019-04-21T10:12:28.426Z,17.10
2019-04-21T10:14:57.867Z,17.20
2019-04-21T10:17:33.420Z,17.30
2019-04-21T10:20:03.164Z,17.40
2019-04-21T10:22:33.050Z,17.40
2019-04-21T10:25:02.958Z,17.50
2019-04-21T10:27:32.469Z,17.60
2019-04-21T10:30:01.681Z,17.70
2019-04-21T10:32:30.573Z,17.80
2019-04-21T10:34:59.332Z,17.90
2019-04-21T10:37:43.899Z,17.90
2019-04-21T10:40:00.127Z,18.00
2019-04-21T10:42:29.423Z,18.00
2019-04-21T10:44:58.936Z,18.10
2019-04-21T10:47:29.319Z,18.10
2019-04-21T10:49:58.902Z,18.10
2019-04-21T10:52:47.231Z,18.10
2019-04-21T10:55:32.167Z,18.20
2019-04-21T10:58:08.794Z,18.20
2019-04-21T11:00:39.888Z,18.30
2019-04-21T11:03:33.199Z,18.30
2019-04-21T11:06:03.239Z,18.40
2019-04-21T11:08:37.892Z,18.50
2019-04-21T11:11:03.850Z,18.50
2019-04-21T11:13:33.189Z,18.60
2019-04-21T11:16:03.443Z,18.60
2019-04-21T11:18:33.993Z,18.60
2019-04-21T11:21:03.123Z,18.70
2019-04-21T11:23:33.094Z,18.70
2019-04-21T11:26:02.428Z,18.70
2019-04-21T11:28:31.994Z,18.70
2019-04-21T11:31:02.596Z,18.70
2019-04-21T11:33:33.307Z,18.70
2019-04-21T11:36:03.591Z,18.80
2019-04-21T11:38:57.088Z,18.80
2019-04-21T11:41:11.785Z,18.80
2019-04-21T11:43:41.340Z,18.80
2019-04-21T11:46:12.708Z,18.90
2019-04-21T11:48:44.076Z,19.00
2019-04-21T11:51:15.230Z,19.00
2019-04-21T11:53:44.437Z,19.10
2019-04-21T11:56:14.622Z,19.10
2019-04-21T11:58:43.958Z,19.10
2019-04-21T12:01:13.900Z,19.10
2019-04-21T12:03:45.345Z,19.10
2019-04-21T12:06:15.472Z,19.20
2019-04-21T12:08:49.441Z,19.30
2019-04-21T12:11:16.014Z,19.30
2019-04-21T12:13:45.881Z,19.30
2019-04-21T12:16:16.676Z,19.40
2019-04-21T12:18:47.178Z,19.40
2019-04-21T12:21:16.256Z,19.40
2019-04-21T12:23:45.652Z,19.50
2019-04-21T12:26:15.945Z,19.60
2019-04-21T12:28:45.969Z,19.60
2019-04-21T12:31:29.747Z,19.60
2019-04-21T12:34:00.461Z,19.60
2019-04-21T12:36:29.660Z,19.60
2019-04-21T12:39:01.759Z,19.60
2019-04-21T12:41:30.747Z,19.60
2019-04-21T12:44:00.461Z,19.70
2019-04-21T12:46:29.862Z,19.80
2019-04-21T12:48:59.944Z,19.80
2019-04-21T12:51:30.184Z,19.90
2019-04-21T12:53:59.576Z,20.00
2019-04-21T12:56:29.485Z,20.00
2019-04-21T12:58:59.448Z,20.00
2019-04-21T13:01:28.578Z,20.00
2019-04-21T13:03:57.883Z,20.00
2019-04-21T13:06:27.724Z,20.00
2019-04-21T13:09:03.610Z,20.10
2019-04-21T13:11:28.775Z,20.10
2019-04-21T13:13:58.261Z,20.10
2019-04-21T13:16:27.564Z,20.10
2019-04-21T13:18:57.613Z,20.10
2019-04-21T13:21:27.864Z,20.10
2019-04-21T13:23:57.058Z,20.10
2019-04-21T13:26:34.419Z,20.10
2019-04-21T13:28:56.734Z,20.20
2019-04-21T13:31:26.575Z,20.20
2019-04-21T13:33:56.132Z,20.30
2019-04-21T13:36:25.765Z,20.30
2019-04-21T13:39:39.587Z,20.20
2019-04-21T13:41:53.267Z,20.30
2019-04-21T13:44:15.678Z,20.30
2019-04-21T13:46:47.148Z,20.30
2019-04-21T13:49:17.526Z,20.30
2019-04-21T13:51:48.015Z,20.40
2019-04-21T13:54:18.001Z,20.40
2019-04-21T13:56:47.635Z,20.50
2019-04-21T13:59:18.157Z,20.50
2019-04-21T14:01:47.832Z,20.50
2019-04-21T14:04:17.833Z,20.50
2019-04-21T14:06:48.017Z,20.60
2019-04-21T14:09:17.732Z,20.60
2019-04-21T14:11:47.489Z,20.60
2019-04-21T14:14:16.539Z,20.60
2019-04-21T14:16:45.895Z,20.60
2019-04-21T14:19:15.544Z,20.60
2019-04-21T14:21:47.685Z,20.60
2019-04-21T14:24:15.192Z,20.70
2019-04-21T14:26:44.603Z,20.70
2019-04-21T14:29:15.487Z,20.70
2019-04-21T14:31:46.338Z,20.60
2019-04-21T14:34:16.341Z,20.70
2019-04-21T14:36:46.590Z,20.70
2019-04-21T14:39:16.655Z,20.60
2019-04-21T14:41:46.404Z,20.70
2019-04-21T14:44:16.350Z,20.60
2019-04-21T14:47:11.214Z,20.60
2019-04-21T14:49:59.468Z,20.50
2019-04-21T14:52:35.056Z,20.50
2019-04-21T14:55:14.428Z,20.50
2019-04-21T14:57:43.678Z,20.50
2019-04-21T15:00:15.502Z,20.50
2019-04-21T15:02:45.558Z,20.40
2019-04-21T15:05:17.996Z,20.40
2019-04-21T15:07:47.409Z,20.30
2019-04-21T15:10:20.620Z,20.30
2019-04-21T15:12:47.773Z,20.30
2019-04-21T15:15:18.096Z,20.20
2019-04-21T15:17:47.401Z,20.20
2019-04-21T15:20:18.196Z,20.20
2019-04-21T15:22:48.291Z,20.20
2019-04-21T15:25:18.368Z,20.10
2019-04-21T15:27:48.686Z,20.20
2019-04-21T15:30:18.700Z,20.20
2019-04-21T15:32:48.536Z,20.10
2019-04-21T15:35:17.531Z,20.10
2019-04-21T15:37:46.606Z,20.00
2019-04-21T15:40:25.306Z,20.00
2019-04-21T15:42:46.539Z,20.00
2019-04-21T15:45:16.754Z,20.00
2019-04-21T15:47:47.573Z,20.00
2019-04-21T15:50:19.428Z,20.00
2019-04-21T15:52:49.691Z,19.90
2019-04-21T15:55:37.026Z,19.90
2019-04-21T15:58:22.936Z,19.80
2019-04-21T16:01:00.681Z,19.80
2019-04-21T16:03:30.971Z,19.80
2019-04-21T16:06:01.296Z,19.80
2019-04-21T16:08:31.205Z,19.80
2019-04-21T16:11:03.955Z,19.80
2019-04-21T16:13:32.085Z,19.80
2019-04-21T16:16:02.249Z,19.80
2019-04-21T16:18:32.205Z,19.70
2019-04-21T16:21:02.096Z,19.70
2019-04-21T16:23:32.726Z,19.60
2019-04-21T16:26:02.607Z,19.60
2019-04-21T16:28:33.345Z,19.60
2019-04-21T16:31:02.849Z,19.60
2019-04-21T16:33:33.439Z,19.50
2019-04-21T16:36:03.646Z,19.50
2019-04-21T16:38:33.520Z,19.50
2019-04-21T16:41:05.546Z,19.50
2019-04-21T16:43:35.302Z,19.40
2019-04-21T16:46:04.684Z,19.40
2019-04-21T16:48:33.922Z,19.40
2019-04-21T16:51:03.640Z,19.40
2019-04-21T16:53:39.871Z,19.40
2019-04-21T16:56:15.275Z,19.30
2019-04-21T16:58:50.607Z,19.30
2019-04-21T17:01:26.192Z,19.30
2019-04-21T17:03:56.052Z,19.30
2019-04-21T17:06:25.195Z,19.20
2019-04-21T17:08:54.693Z,19.20
2019-04-21T17:11:27.355Z,19.10
2019-04-21T17:13:54.780Z,19.10
2019-04-21T17:16:50.896Z,19.10
2019-04-21T17:19:05.215Z,19.00
2019-04-21T17:21:28.118Z,19.00
2019-04-21T17:23:58.716Z,18.90
2019-04-21T17:26:29.021Z,18.90
2019-04-21T17:28:58.799Z,18.90
2019-04-21T17:31:28.736Z,18.80
2019-04-21T17:34:06.363Z,18.80
2019-04-21T17:36:29.447Z,18.70
2019-04-21T17:39:00.107Z,18.70
2019-04-21T17:41:36.456Z,18.60
2019-04-21T17:44:00.577Z,18.50
2019-04-21T17:46:38.617Z,18.40
2019-04-21T17:49:01.112Z,18.40
2019-04-21T17:51:55.177Z,18.40
2019-04-21T17:54:33.190Z,18.30
2019-04-21T17:57:17.985Z,18.20
2019-04-21T17:59:56.634Z,18.10
2019-04-21T18:02:17.371Z,18.00
2019-04-21T18:04:49.642Z,17.90
2019-04-21T18:07:26.358Z,17.80
2019-04-21T18:10:00.943Z,17.70
2019-04-21T18:12:26.720Z,17.60
2019-04-21T18:14:54.147Z,17.50
2019-04-21T18:17:14.131Z,17.30
2019-04-21T18:19:46.962Z,17.20
2019-04-21T18:22:37.477Z,17.10
2019-04-21T18:25:09.891Z,17.10
2019-04-21T18:27:34.726Z,17.10
2019-04-21T18:30:18.210Z,17.10
2019-04-21T18:32:48.241Z,17.10
2019-04-21T18:35:30.202Z,17.10
2019-04-21T18:38:13.360Z,17.10
2019-04-21T18:40:42.328Z,17.10
2019-04-21T18:43:52.024Z,17.10
2019-04-21T18:46:31.431Z,17.10
2019-04-21T18:48:45.859Z,17.00
2019-04-21T18:51:28.043Z,17.00
2019-04-21T18:54:17.702Z,16.90
2019-04-21T18:56:25.263Z,16.80
2019-04-21T18:58:54.337Z,16.70
2019-04-21T19:01:27.635Z,16.70
2019-04-21T19:03:56.133Z,16.70
2019-04-21T19:06:42.409Z,16.60
2019-04-21T19:09:14.223Z,16.60
2019-04-21T19:11:50.186Z,16.50
2019-04-21T19:14:36.386Z,16.50
2019-04-21T19:17:39.695Z,16.40
2019-04-21T19:19:50.796Z,16.40
2019-04-21T19:22:11.745Z,16.40
2019-04-21T19:24:41.359Z,16.30
2019-04-21T19:29:54.058Z,16.20
2019-04-21T19:32:21.180Z,16.20
2019-04-21T19:34:35.879Z,16.00
2019-04-21T19:37:05.820Z,16.00
2019-04-21T19:39:42.775Z,16.00
2019-04-21T19:42:14.369Z,15.90
2019-04-21T19:44:47.045Z,15.90
2019-04-21T19:47:22.862Z,15.80
2019-04-21T19:49:55.141Z,15.70
2019-04-21T19:52:11.604Z,15.70
2019-04-21T19:54:39.697Z,15.60
2019-04-21T19:57:07.067Z,15.50
2019-04-21T19:59:42.259Z,15.40
2019-04-21T20:02:07.003Z,15.40
2019-04-21T20:04:42.799Z,15.30
2019-04-21T20:07:23.377Z,15.20
2019-04-21T20:09:56.753Z,15.20
2019-04-21T20:12:34.329Z,15.10
2019-04-21T20:15:08.064Z,15.10
2019-04-21T20:17:31.267Z,15.00
2019-04-21T20:19:42.440Z,15.00
2019-04-21T20:22:11.466Z,14.90
2019-04-21T20:24:49.900Z,14.90
2019-04-21T20:27:17.605Z,14.80
2019-04-21T20:30:04.192Z,14.70
2019-04-21T20:32:30.573Z,14.70
2019-04-21T20:35:09.419Z,14.60
2019-04-21T20:37:32.040Z,14.60
2019-04-21T20:39:51.614Z,14.60
2019-04-21T20:42:29.367Z,14.50
2019-04-21T20:45:19.111Z,14.50
2019-04-21T20:47:25.670Z,14.40
2019-04-21T20:50:03.249Z,14.30
2019-04-21T20:52:35.811Z,14.30
2019-04-21T20:55:03.621Z,14.30
2019-04-21T20:57:35.202Z,14.30
2019-04-21T21:00:12.223Z,14.30
2019-04-21T21:02:46.881Z,14.20
2019-04-21T21:05:04.694Z,14.10
2019-04-21T21:07:45.837Z,14.10
2019-04-21T21:10:14.121Z,14.10
2019-04-21T21:12:51.227Z,14.00
2019-04-21T21:15:07.261Z,13.90
2019-04-21T21:17:52.332Z,13.90
2019-04-21T21:20:18.080Z,13.80
2019-04-21T21:22:43.845Z,13.80
2019-04-21T21:25:25.554Z,13.70
2019-04-21T21:27:45.565Z,13.70
2019-04-21T21:30:32.572Z,13.60
2019-04-21T21:33:11.524Z,13.60
2019-04-21T21:35:37.222Z,13.60
2019-04-21T21:38:13.495Z,13.50
2019-04-21T21:40:40.157Z,13.40
2019-04-21T21:42:53.649Z,13.40
2019-04-21T21:45:25.883Z,13.30
2019-04-21T21:48:16.065Z,13.30
2019-04-21T21:50:35.427Z,13.20
2019-04-21T21:53:04.295Z,13.20
2019-04-21T21:55:27.689Z,13.20
2019-04-21T21:58:01.943Z,13.10
2019-04-21T22:00:30.049Z,13.10
2019-04-21T22:03:09.768Z,13.00
2019-04-21T22:05:37.486Z,12.90
2019-04-21T22:08:02.415Z,12.90
2019-04-21T22:10:31.635Z,12.90
2019-04-21T22:13:07.173Z,12.80
2019-04-21T22:15:33.715Z,12.80
2019-04-21T22:18:34.909Z,12.70
2019-04-21T22:20:52.259Z,12.70
2019-04-21T22:23:12.887Z,12.70
2019-04-21T22:25:37.441Z,12.60
2019-04-21T22:28:04.830Z,12.60
2019-04-21T22:30:40.330Z,12.50
2019-04-21T22:33:10.092Z,12.50
2019-04-21T22:35:42.649Z,12.50
2019-04-21T22:38:22.449Z,12.50
2019-04-21T22:40:50.470Z,12.50
2019-04-21T22:43:19.653Z,12.40
2019-04-21T22:45:41.101Z,12.40
2019-04-21T22:48:17.534Z,12.40
2019-04-21T22:50:42.555Z,12.40
2019-04-21T22:53:13.760Z,12.30
2019-04-21T22:55:43.110Z,12.30
2019-04-21T22:58:18.029Z,12.30
2019-04-21T23:00:51.425Z,12.40
2019-04-21T23:03:19.081Z,12.30
2019-04-21T23:05:48.178Z,12.40
2019-04-21T23:08:17.158Z,12.40
2019-04-21T23:10:50.521Z,12.40
2019-04-21T23:13:23.014Z,12.50
2019-04-21T23:15:54.923Z,12.60
2019-04-21T23:18:37.490Z,12.60
2019-04-21T23:21:09.281Z,12.60
2019-04-21T23:23:42.273Z,12.60
2019-04-21T23:26:04.685Z,12.60
2019-04-21T23:28:49.152Z,12.60
2019-04-21T23:31:12.502Z,12.60
2019-04-21T23:33:25.726Z,12.60
2019-04-21T23:36:02.653Z,12.50
2019-04-21T23:38:33.312Z,12.50
2019-04-21T23:41:00.571Z,12.50
2019-04-21T23:43:31.418Z,12.40
2019-04-21T23:46:04.226Z,12.40
2019-04-21T23:48:41.353Z,12.30
2019-04-21T23:51:13.561Z,12.30
2019-04-21T23:53:33.411Z,12.30
2019-04-21T23:56:03.435Z,12.30
2019-04-21T23:58:34.732Z,12.20
